sensor_id;sensor_type;location;lat;lon;timestamp;temperature;humidity
2647;DHT22;1333;50.958;6.770;2023-03-31T00:02:01;11.60;99.90
2647;DHT22;1333;50.958;6.770;2023-03-31T00:04:27;11.60;99.90
2647;DHT22;1333;50.958;6.770;2023-03-31T00:06:56;11.60;99.90
2647;DHT22;1333;50.958;6.770;2023-03-31T00:09:21;11.60;99.90
2647;DHT22;1333;50.958;6.770;2023-03-31T00:11:48;11.50;99.90
2647;DHT22;1333;50.958;6.770;2023-03-31T00:14:14;11.50;99.90
2647;DHT22;1333;50.958;6.770;2023-03-31T00:16:41;11.40;99.90
2647;DHT22;1333;50.958;6.770;2023-03-31T00:19:06;11.40;99.90
2647;DHT22;1333;50.958;6.770;2023-03-31T00:21:34;11.40;99.90
2647;DHT22;1333;50.958;6.770;2023-03-31T00:24:05;11.40;99.90
2647;DHT22;1333;50.958;6.770;2023-03-31T00:26:32;11.40;99.90
2647;DHT22;1333;50.958;6.770;2023-03-31T00:28:58;11.50;99.90
2647;DHT22;1333;50.958;6.770;2023-03-31T00:31:24;11.60;99.90
2647;DHT22;1333;50.958;6.770;2023-03-31T00:33:52;11.60;99.90
2647;DHT22;1333;50.958;6.770;2023-03-31T00:36:17;11.50;99.90
2647;DHT22;1333;50.958;6.770;2023-03-31T00:38:48;11.50;99.90
2647;DHT22;1333;50.958;6.770;2023-03-31T00:41:14;11.50;99.90
2647;DHT22;1333;50.958;6.770;2023-03-31T00:43:40;11.50;99.90
2647;DHT22;1333;50.958;6.770;2023-03-31T00:49:00;11.50;99.90
2647;DHT22;1333;50.958;6.770;2023-03-31T00:51:29;11.50;99.90
2647;DHT22;1333;50.958;6.770;2023-03-31T00:54:00;11.50;99.90
2647;DHT22;1333;50.958;6.770;2023-03-31T00:56:33;11.50;99.90
2647;DHT22;1333;50.958;6.770;2023-03-31T00:59:02;11.50;99.90
2647;DHT22;1333;50.958;6.770;2023-03-31T01:01:29;11.50;99.90
2647;DHT22;1333;50.958;6.770;2023-03-31T01:03:55;11.50;99.90
2647;DHT22;1333;50.958;6.770;2023-03-31T01:06:22;11.50;99.90
2647;DHT22;1333;50.958;6.770;2023-03-31T01:08:50;11.50;99.90
2647;DHT22;1333;50.958;6.770;2023-03-31T01:11:19;11.40;99.90
2647;DHT22;1333;50.958;6.770;2023-03-31T01:13:47;11.40;99.90
2647;DHT22;1333;50.958;6.770;2023-03-31T01:16:16;11.40;99.90
2647;DHT22;1333;50.958;6.770;2023-03-31T01:18:43;11.40;99.90
2647;DHT22;1333;50.958;6.770;2023-03-31T01:21:37;11.30;99.90
2647;DHT22;1333;50.958;6.770;2023-03-31T01:24:40;11.40;99.90
2647;DHT22;1333;50.958;6.770;2023-03-31T01:27:50;11.30;99.90
2647;DHT22;1333;50.958;6.770;2023-03-31T01:30:36;11.30;99.90
2647;DHT22;1333;50.958;6.770;2023-03-31T01:36:32;11.30;99.90
2647;DHT22;1333;50.958;6.770;2023-03-31T01:42:34;11.30;99.90
2647;DHT22;1333;50.958;6.770;2023-03-31T01:47:50;11.20;99.90
2647;DHT22;1333;50.958;6.770;2023-03-31T01:50:26;11.20;99.90
2647;DHT22;1333;50.958;6.770;2023-03-31T01:53:27;11.30;99.90
2647;DHT22;1333;50.958;6.770;2023-03-31T01:56:05;11.40;99.90
2647;DHT22;1333;50.958;6.770;2023-03-31T01:58:35;11.40;99.90
2647;DHT22;1333;50.958;6.770;2023-03-31T02:04:22;11.50;99.90
2647;DHT22;1333;50.958;6.770;2023-03-31T02:06:54;11.50;99.90
2647;DHT22;1333;50.958;6.770;2023-03-31T02:09:26;11.50;99.90
2647;DHT22;1333;50.958;6.770;2023-03-31T02:11:54;11.60;99.90
2647;DHT22;1333;50.958;6.770;2023-03-31T02:14:23;11.60;99.90
2647;DHT22;1333;50.958;6.770;2023-03-31T02:16:56;11.50;99.90
2647;DHT22;1333;50.958;6.770;2023-03-31T02:19:25;11.60;99.90
2647;DHT22;1333;50.958;6.770;2023-03-31T02:21:52;11.70;99.90
2647;DHT22;1333;50.958;6.770;2023-03-31T02:24:22;11.70;99.90
2647;DHT22;1333;50.958;6.770;2023-03-31T02:26:52;11.70;99.90
2647;DHT22;1333;50.958;6.770;2023-03-31T02:29:19;11.80;99.90
2647;DHT22;1333;50.958;6.770;2023-03-31T02:34:19;11.80;99.90
2647;DHT22;1333;50.958;6.770;2023-03-31T02:36:45;11.80;99.90
2647;DHT22;1333;50.958;6.770;2023-03-31T02:39:14;11.80;99.90
2647;DHT22;1333;50.958;6.770;2023-03-31T02:41:41;11.80;99.90
2647;DHT22;1333;50.958;6.770;2023-03-31T02:44:08;11.70;99.90
2647;DHT22;1333;50.958;6.770;2023-03-31T02:46:34;11.80;99.90
2647;DHT22;1333;50.958;6.770;2023-03-31T02:49:01;11.70;99.90
2647;DHT22;1333;50.958;6.770;2023-03-31T02:54:42;11.80;99.90
2647;DHT22;1333;50.958;6.770;2023-03-31T02:57:35;11.80;99.90
2647;DHT22;1333;50.958;6.770;2023-03-31T03:00:33;11.80;99.90
2647;DHT22;1333;50.958;6.770;2023-03-31T03:11:51;11.60;99.90
2647;DHT22;1333;50.958;6.770;2023-03-31T03:14:47;11.60;99.90
2647;DHT22;1333;50.958;6.770;2023-03-31T03:17:34;11.60;99.90
2647;DHT22;1333;50.958;6.770;2023-03-31T03:20:03;11.50;99.90
2647;DHT22;1333;50.958;6.770;2023-03-31T03:22:36;11.50;99.90
2647;DHT22;1333;50.958;6.770;2023-03-31T03:25:03;11.50;99.90
2647;DHT22;1333;50.958;6.770;2023-03-31T03:27:29;11.50;99.90
2647;DHT22;1333;50.958;6.770;2023-03-31T03:29:54;11.50;99.90
2647;DHT22;1333;50.958;6.770;2023-03-31T03:32:20;11.50;99.90
2647;DHT22;1333;50.958;6.770;2023-03-31T03:34:46;11.50;99.90
2647;DHT22;1333;50.958;6.770;2023-03-31T03:37:11;11.40;99.90
2647;DHT22;1333;50.958;6.770;2023-03-31T03:39:37;11.50;99.90
2647;DHT22;1333;50.958;6.770;2023-03-31T03:42:03;11.50;99.90
2647;DHT22;1333;50.958;6.770;2023-03-31T03:44:28;11.50;99.90
2647;DHT22;1333;50.958;6.770;2023-03-31T03:46:54;11.40;99.90
2647;DHT22;1333;50.958;6.770;2023-03-31T03:49:19;11.50;99.90
2647;DHT22;1333;50.958;6.770;2023-03-31T03:51:45;11.40;99.90
2647;DHT22;1333;50.958;6.770;2023-03-31T03:54:11;11.50;99.90
2647;DHT22;1333;50.958;6.770;2023-03-31T03:56:37;11.50;99.90
2647;DHT22;1333;50.958;6.770;2023-03-31T03:59:02;11.60;99.90
2647;DHT22;1333;50.958;6.770;2023-03-31T04:01:28;11.50;99.90
2647;DHT22;1333;50.958;6.770;2023-03-31T04:03:54;11.60;99.90
2647;DHT22;1333;50.958;6.770;2023-03-31T04:06:19;11.50;99.90
2647;DHT22;1333;50.958;6.770;2023-03-31T04:08:45;11.40;99.90
2647;DHT22;1333;50.958;6.770;2023-03-31T04:11:16;11.50;99.90
2647;DHT22;1333;50.958;6.770;2023-03-31T04:13:42;11.50;99.90
2647;DHT22;1333;50.958;6.770;2023-03-31T04:16:09;11.40;99.90
2647;DHT22;1333;50.958;6.770;2023-03-31T04:18:34;11.50;99.90
2647;DHT22;1333;50.958;6.770;2023-03-31T04:21:01;11.40;99.90
2647;DHT22;1333;50.958;6.770;2023-03-31T04:23:34;11.40;99.90
2647;DHT22;1333;50.958;6.770;2023-03-31T04:26:09;11.40;99.90
2647;DHT22;1333;50.958;6.770;2023-03-31T04:28:37;11.50;99.90
2647;DHT22;1333;50.958;6.770;2023-03-31T04:31:04;11.50;99.90
2647;DHT22;1333;50.958;6.770;2023-03-31T04:33:31;11.40;99.90
2647;DHT22;1333;50.958;6.770;2023-03-31T04:35:58;11.50;99.90
2647;DHT22;1333;50.958;6.770;2023-03-31T04:38:31;11.40;99.90
2647;DHT22;1333;50.958;6.770;2023-03-31T04:40:57;11.40;99.90
2647;DHT22;1333;50.958;6.770;2023-03-31T04:43:24;11.30;99.90
2647;DHT22;1333;50.958;6.770;2023-03-31T04:45:50;11.30;99.90
2647;DHT22;1333;50.958;6.770;2023-03-31T04:48:16;11.30;99.90
2647;DHT22;1333;50.958;6.770;2023-03-31T04:50:41;11.30;99.90
2647;DHT22;1333;50.958;6.770;2023-03-31T04:53:07;11.30;99.90
2647;DHT22;1333;50.958;6.770;2023-03-31T04:55:33;11.30;99.90
2647;DHT22;1333;50.958;6.770;2023-03-31T04:57:58;11.30;99.90
2647;DHT22;1333;50.958;6.770;2023-03-31T05:00:24;11.30;99.90
2647;DHT22;1333;50.958;6.770;2023-03-31T05:02:51;11.30;99.90
2647;DHT22;1333;50.958;6.770;2023-03-31T05:05:17;11.30;99.90
2647;DHT22;1333;50.958;6.770;2023-03-31T05:07:42;11.30;99.90
2647;DHT22;1333;50.958;6.770;2023-03-31T05:10:08;11.30;99.90
2647;DHT22;1333;50.958;6.770;2023-03-31T05:12:34;11.30;99.90
2647;DHT22;1333;50.958;6.770;2023-03-31T05:15:00;11.30;99.90
2647;DHT22;1333;50.958;6.770;2023-03-31T05:17:26;11.30;99.90
2647;DHT22;1333;50.958;6.770;2023-03-31T05:19:51;11.20;99.90
2647;DHT22;1333;50.958;6.770;2023-03-31T05:22:17;11.20;99.90
2647;DHT22;1333;50.958;6.770;2023-03-31T05:24:45;11.30;99.90
2647;DHT22;1333;50.958;6.770;2023-03-31T05:27:11;11.30;99.90
2647;DHT22;1333;50.958;6.770;2023-03-31T05:29:36;11.30;99.90
2647;DHT22;1333;50.958;6.770;2023-03-31T05:32:03;11.40;99.90
2647;DHT22;1333;50.958;6.770;2023-03-31T05:34:29;11.50;99.90
2647;DHT22;1333;50.958;6.770;2023-03-31T05:36:55;11.60;99.90
2647;DHT22;1333;50.958;6.770;2023-03-31T05:39:20;11.60;99.90
2647;DHT22;1333;50.958;6.770;2023-03-31T05:41:46;11.70;99.90
2647;DHT22;1333;50.958;6.770;2023-03-31T05:44:11;11.60;99.90
2647;DHT22;1333;50.958;6.770;2023-03-31T05:46:37;11.60;99.90
2647;DHT22;1333;50.958;6.770;2023-03-31T05:49:03;11.60;99.90
2647;DHT22;1333;50.958;6.770;2023-03-31T05:51:28;11.60;99.90
2647;DHT22;1333;50.958;6.770;2023-03-31T05:53:54;11.60;99.90
2647;DHT22;1333;50.958;6.770;2023-03-31T05:56:19;11.60;99.90
2647;DHT22;1333;50.958;6.770;2023-03-31T05:58:46;11.60;99.90
2647;DHT22;1333;50.958;6.770;2023-03-31T06:01:14;11.70;99.90
2647;DHT22;1333;50.958;6.770;2023-03-31T06:03:44;11.60;99.90
2647;DHT22;1333;50.958;6.770;2023-03-31T06:06:10;11.60;99.90
2647;DHT22;1333;50.958;6.770;2023-03-31T06:08:37;11.60;99.90
2647;DHT22;1333;50.958;6.770;2023-03-31T06:11:07;11.70;99.90
2647;DHT22;1333;50.958;6.770;2023-03-31T06:13:34;11.60;99.90
2647;DHT22;1333;50.958;6.770;2023-03-31T06:16:00;11.60;99.90
2647;DHT22;1333;50.958;6.770;2023-03-31T06:18:27;11.60;99.90
2647;DHT22;1333;50.958;6.770;2023-03-31T06:20:54;11.70;99.90
2647;DHT22;1333;50.958;6.770;2023-03-31T06:23:20;11.70;99.90
2647;DHT22;1333;50.958;6.770;2023-03-31T06:25:46;11.80;99.90
2647;DHT22;1333;50.958;6.770;2023-03-31T06:28:11;11.80;99.90
2647;DHT22;1333;50.958;6.770;2023-03-31T06:30:37;11.80;99.90
2647;DHT22;1333;50.958;6.770;2023-03-31T06:33:02;11.70;99.90
2647;DHT22;1333;50.958;6.770;2023-03-31T06:35:28;11.70;99.90
2647;DHT22;1333;50.958;6.770;2023-03-31T06:37:54;11.60;99.90
2647;DHT22;1333;50.958;6.770;2023-03-31T06:40:19;11.60;99.90
2647;DHT22;1333;50.958;6.770;2023-03-31T06:42:45;11.60;99.90
2647;DHT22;1333;50.958;6.770;2023-03-31T06:45:10;11.60;99.90
2647;DHT22;1333;50.958;6.770;2023-03-31T06:47:36;11.60;99.90
2647;DHT22;1333;50.958;6.770;2023-03-31T06:50:07;11.60;99.90
2647;DHT22;1333;50.958;6.770;2023-03-31T06:52:34;11.70;99.90
2647;DHT22;1333;50.958;6.770;2023-03-31T06:54:59;11.70;99.90
2647;DHT22;1333;50.958;6.770;2023-03-31T06:57:26;11.80;99.90
2647;DHT22;1333;50.958;6.770;2023-03-31T06:59:52;11.90;99.90
2647;DHT22;1333;50.958;6.770;2023-03-31T07:02:18;12.10;99.90
2647;DHT22;1333;50.958;6.770;2023-03-31T07:04:43;12.60;99.90
2647;DHT22;1333;50.958;6.770;2023-03-31T07:07:09;12.90;99.90
2647;DHT22;1333;50.958;6.770;2023-03-31T07:09:35;13.00;99.90
2647;DHT22;1333;50.958;6.770;2023-03-31T07:12:00;13.10;99.90
2647;DHT22;1333;50.958;6.770;2023-03-31T07:14:32;13.10;99.90
2647;DHT22;1333;50.958;6.770;2023-03-31T07:16:58;13.10;99.90
2647;DHT22;1333;50.958;6.770;2023-03-31T07:19:24;13.40;99.90
2647;DHT22;1333;50.958;6.770;2023-03-31T07:21:50;14.00;99.90
2647;DHT22;1333;50.958;6.770;2023-03-31T07:24:16;14.50;99.90
2647;DHT22;1333;50.958;6.770;2023-03-31T07:26:42;14.70;99.90
2647;DHT22;1333;50.958;6.770;2023-03-31T07:29:07;14.80;99.90
2647;DHT22;1333;50.958;6.770;2023-03-31T07:31:33;15.00;99.90
2647;DHT22;1333;50.958;6.770;2023-03-31T07:34:00;15.80;99.90
2647;DHT22;1333;50.958;6.770;2023-03-31T07:36:26;16.80;99.90
2647;DHT22;1333;50.958;6.770;2023-03-31T07:38:51;17.50;99.90
2647;DHT22;1333;50.958;6.770;2023-03-31T07:41:19;17.80;99.90
2647;DHT22;1333;50.958;6.770;2023-03-31T07:43:45;17.90;99.90
2647;DHT22;1333;50.958;6.770;2023-03-31T07:46:20;17.60;99.90
2647;DHT22;1333;50.958;6.770;2023-03-31T07:48:46;17.20;99.90
2647;DHT22;1333;50.958;6.770;2023-03-31T07:51:14;16.80;99.90
2647;DHT22;1333;50.958;6.770;2023-03-31T07:53:40;16.70;99.90
2647;DHT22;1333;50.958;6.770;2023-03-31T07:56:05;16.70;99.90
2647;DHT22;1333;50.958;6.770;2023-03-31T07:58:31;17.00;99.90
2647;DHT22;1333;50.958;6.770;2023-03-31T08:00:57;17.00;99.90
2647;DHT22;1333;50.958;6.770;2023-03-31T08:03:22;16.50;99.90
2647;DHT22;1333;50.958;6.770;2023-03-31T08:05:50;16.20;99.90
2647;DHT22;1333;50.958;6.770;2023-03-31T08:08:16;16.00;99.90
2647;DHT22;1333;50.958;6.770;2023-03-31T08:10:42;15.80;99.90
2647;DHT22;1333;50.958;6.770;2023-03-31T08:13:07;15.70;99.90
2647;DHT22;1333;50.958;6.770;2023-03-31T08:15:33;15.50;99.90
2647;DHT22;1333;50.958;6.770;2023-03-31T08:17:58;15.30;99.90
2647;DHT22;1333;50.958;6.770;2023-03-31T08:20:24;15.40;99.90
2647;DHT22;1333;50.958;6.770;2023-03-31T08:22:50;15.30;99.90
2647;DHT22;1333;50.958;6.770;2023-03-31T08:25:15;15.40;99.90
2647;DHT22;1333;50.958;6.770;2023-03-31T08:27:41;15.40;99.90
2647;DHT22;1333;50.958;6.770;2023-03-31T08:30:09;15.30;99.90
2647;DHT22;1333;50.958;6.770;2023-03-31T08:32:35;15.50;99.90
2647;DHT22;1333;50.958;6.770;2023-03-31T08:35:01;15.70;99.90
2647;DHT22;1333;50.958;6.770;2023-03-31T08:37:27;16.00;99.90
2647;DHT22;1333;50.958;6.770;2023-03-31T08:39:53;16.00;99.90
2647;DHT22;1333;50.958;6.770;2023-03-31T08:47:33;17.20;99.90
2647;DHT22;1333;50.958;6.770;2023-03-31T08:50:14;18.40;99.90
2647;DHT22;1333;50.958;6.770;2023-03-31T08:53:04;20.30;99.90
2647;DHT22;1333;50.958;6.770;2023-03-31T08:55:45;21.30;98.10
2647;DHT22;1333;50.958;6.770;2023-03-31T08:58:17;22.20;92.50
2647;DHT22;1333;50.958;6.770;2023-03-31T09:01:04;23.50;81.00
2647;DHT22;1333;50.958;6.770;2023-03-31T09:03:58;24.80;73.40
2647;DHT22;1333;50.958;6.770;2023-03-31T09:12:09;24.50;57.60
2647;DHT22;1333;50.958;6.770;2023-03-31T09:14:40;23.30;58.30
2647;DHT22;1333;50.958;6.770;2023-03-31T09:20:00;22.20;61.90
2647;DHT22;1333;50.958;6.770;2023-03-31T09:22:37;20.90;61.50
2647;DHT22;1333;50.958;6.770;2023-03-31T09:25:19;19.80;63.90
2647;DHT22;1333;50.958;6.770;2023-03-31T09:27:45;19.30;69.30
2647;DHT22;1333;50.958;6.770;2023-03-31T09:30:13;19.20;74.30
2647;DHT22;1333;50.958;6.770;2023-03-31T09:32:40;19.10;78.30
2647;DHT22;1333;50.958;6.770;2023-03-31T09:35:21;18.70;79.60
2647;DHT22;1333;50.958;6.770;2023-03-31T09:37:48;18.80;81.80
2647;DHT22;1333;50.958;6.770;2023-03-31T09:40:20;18.60;82.20
2647;DHT22;1333;50.958;6.770;2023-03-31T09:42:52;19.10;84.30
2647;DHT22;1333;50.958;6.770;2023-03-31T09:45:19;19.70;81.60
2647;DHT22;1333;50.958;6.770;2023-03-31T09:47:50;20.60;75.80
2647;DHT22;1333;50.958;6.770;2023-03-31T09:50:17;21.30;73.10
2647;DHT22;1333;50.958;6.770;2023-03-31T09:52:49;21.40;67.60
2647;DHT22;1333;50.958;6.770;2023-03-31T09:55:22;21.10;69.20
2647;DHT22;1333;50.958;6.770;2023-03-31T09:57:49;21.20;68.70
2647;DHT22;1333;50.958;6.770;2023-03-31T10:00:17;21.00;66.90
2647;DHT22;1333;50.958;6.770;2023-03-31T10:02:49;20.80;66.50
2647;DHT22;1333;50.958;6.770;2023-03-31T10:06:07;20.70;68.70
2647;DHT22;1333;50.958;6.770;2023-03-31T10:08:20;20.50;69.30
2647;DHT22;1333;50.958;6.770;2023-03-31T10:11:13;20.00;69.70
2647;DHT22;1333;50.958;6.770;2023-03-31T10:16:30;19.30;74.90
2647;DHT22;1333;50.958;6.770;2023-03-31T10:19:11;19.50;77.50
2647;DHT22;1333;50.958;6.770;2023-03-31T10:21:38;20.30;78.60
2647;DHT22;1333;50.958;6.770;2023-03-31T10:24:08;21.00;72.40
2647;DHT22;1333;50.958;6.770;2023-03-31T10:26:34;21.30;67.60
2647;DHT22;1333;50.958;6.770;2023-03-31T10:29:00;21.50;66.60
2647;DHT22;1333;50.958;6.770;2023-03-31T10:31:33;20.80;64.70
2647;DHT22;1333;50.958;6.770;2023-03-31T10:34:07;20.30;67.00
2647;DHT22;1333;50.958;6.770;2023-03-31T10:36:34;20.20;70.60
2647;DHT22;1333;50.958;6.770;2023-03-31T10:39:05;20.00;69.10
2647;DHT22;1333;50.958;6.770;2023-03-31T10:41:31;19.10;70.10
2647;DHT22;1333;50.958;6.770;2023-03-31T10:43:59;18.50;73.40
2647;DHT22;1333;50.958;6.770;2023-03-31T10:46:47;18.10;78.00
2647;DHT22;1333;50.958;6.770;2023-03-31T10:49:25;18.10;82.20
2647;DHT22;1333;50.958;6.770;2023-03-31T10:51:55;18.30;79.10
2647;DHT22;1333;50.958;6.770;2023-03-31T10:54:22;18.30;80.00
2647;DHT22;1333;50.958;6.770;2023-03-31T10:56:53;18.30;80.40
2647;DHT22;1333;50.958;6.770;2023-03-31T11:13:43;16.40;99.90
2647;DHT22;1333;50.958;6.770;2023-03-31T11:18:59;16.20;99.90
2647;DHT22;1333;50.958;6.770;2023-03-31T11:32:52;16.80;99.90
2647;DHT22;1333;50.958;6.770;2023-03-31T11:38:20;17.50;99.90
2647;DHT22;1333;50.958;6.770;2023-03-31T11:48:56;18.40;99.90
2647;DHT22;1333;50.958;6.770;2023-03-31T11:54:00;18.30;99.90
2647;DHT22;1333;50.958;6.770;2023-03-31T11:56:34;18.40;99.90
2647;DHT22;1333;50.958;6.770;2023-03-31T11:59:01;18.30;99.90
2647;DHT22;1333;50.958;6.770;2023-03-31T12:01:53;17.90;99.90
2647;DHT22;1333;50.958;6.770;2023-03-31T12:04:54;17.50;99.90
2647;DHT22;1333;50.958;6.770;2023-03-31T12:07:39;17.40;99.90
2647;DHT22;1333;50.958;6.770;2023-03-31T12:10:21;17.30;99.90
2647;DHT22;1333;50.958;6.770;2023-03-31T12:15:31;17.40;99.90
2647;DHT22;1333;50.958;6.770;2023-03-31T12:18:15;17.20;99.90
2647;DHT22;1333;50.958;6.770;2023-03-31T12:20:51;17.20;99.90
2647;DHT22;1333;50.958;6.770;2023-03-31T12:23:21;17.40;99.90
2647;DHT22;1333;50.958;6.770;2023-03-31T12:28:21;17.30;99.90
2647;DHT22;1333;50.958;6.770;2023-03-31T12:30:47;17.30;99.90
2647;DHT22;1333;50.958;6.770;2023-03-31T12:33:50;17.30;99.90
2647;DHT22;1333;50.958;6.770;2023-03-31T12:36:52;17.00;99.90
2647;DHT22;1333;50.958;6.770;2023-03-31T12:39:58;17.10;99.90
2647;DHT22;1333;50.958;6.770;2023-03-31T12:48:43;17.10;99.90
2647;DHT22;1333;50.958;6.770;2023-03-31T12:51:23;17.30;99.70
2647;DHT22;1333;50.958;6.770;2023-03-31T12:59:43;17.30;99.90
2647;DHT22;1333;50.958;6.770;2023-03-31T13:02:23;17.30;99.90
2647;DHT22;1333;50.958;6.770;2023-03-31T13:04:49;17.20;99.90
2647;DHT22;1333;50.958;6.770;2023-03-31T13:09:49;17.10;99.90
2647;DHT22;1333;50.958;6.770;2023-03-31T13:12:22;17.10;99.90
2647;DHT22;1333;50.958;6.770;2023-03-31T13:14:51;17.00;99.90
2647;DHT22;1333;50.958;6.770;2023-03-31T13:17:27;17.10;99.90
2647;DHT22;1333;50.958;6.770;2023-03-31T13:19:54;17.40;99.90
2647;DHT22;1333;50.958;6.770;2023-03-31T13:22:29;17.70;99.90
2647;DHT22;1333;50.958;6.770;2023-03-31T13:25:34;18.20;99.90
2647;DHT22;1333;50.958;6.770;2023-03-31T13:35:29;18.90;94.60
2647;DHT22;1333;50.958;6.770;2023-03-31T13:43:59;18.60;95.20
2647;DHT22;1333;50.958;6.770;2023-03-31T13:46:51;18.40;92.10
2647;DHT22;1333;50.958;6.770;2023-03-31T13:52:47;19.60;89.50
2647;DHT22;1333;50.958;6.770;2023-03-31T14:01:44;20.00;75.10
2647;DHT22;1333;50.958;6.770;2023-03-31T14:04:49;20.50;77.80
2647;DHT22;1333;50.958;6.770;2023-03-31T14:10:26;19.50;74.60
2647;DHT22;1333;50.958;6.770;2023-03-31T14:15:52;18.40;79.60
2647;DHT22;1333;50.958;6.770;2023-03-31T14:18:41;18.10;83.10
2647;DHT22;1333;50.958;6.770;2023-03-31T14:29:26;17.50;84.00
2647;DHT22;1333;50.958;6.770;2023-03-31T14:37:06;17.20;81.50
2647;DHT22;1333;50.958;6.770;2023-03-31T14:39:45;17.00;83.70
2647;DHT22;1333;50.958;6.770;2023-03-31T14:42:16;16.90;83.30
2647;DHT22;1333;50.958;6.770;2023-03-31T14:44:43;16.70;85.60
2647;DHT22;1333;50.958;6.770;2023-03-31T14:47:35;16.70;86.40
2647;DHT22;1333;50.958;6.770;2023-03-31T14:50:05;16.70;85.80
2647;DHT22;1333;50.958;6.770;2023-03-31T14:52:33;16.60;86.20
2647;DHT22;1333;50.958;6.770;2023-03-31T14:55:00;16.40;88.30
2647;DHT22;1333;50.958;6.770;2023-03-31T14:57:35;16.30;90.00
2647;DHT22;1333;50.958;6.770;2023-03-31T15:00:05;16.20;90.70
2647;DHT22;1333;50.958;6.770;2023-03-31T15:02:40;16.20;91.50
2647;DHT22;1333;50.958;6.770;2023-03-31T15:05:29;16.00;91.50
2647;DHT22;1333;50.958;6.770;2023-03-31T15:08:02;15.80;92.60
2647;DHT22;1333;50.958;6.770;2023-03-31T15:10:34;15.70;94.60
2647;DHT22;1333;50.958;6.770;2023-03-31T15:13:05;15.70;96.40
2647;DHT22;1333;50.958;6.770;2023-03-31T15:15:32;15.90;96.70
2647;DHT22;1333;50.958;6.770;2023-03-31T15:18:02;16.00;98.10
2647;DHT22;1333;50.958;6.770;2023-03-31T15:22:57;15.90;99.90
2647;DHT22;1333;50.958;6.770;2023-03-31T15:25:27;15.60;99.90
2647;DHT22;1333;50.958;6.770;2023-03-31T15:27:57;15.50;99.90
2647;DHT22;1333;50.958;6.770;2023-03-31T15:30:25;15.30;99.90
2647;DHT22;1333;50.958;6.770;2023-03-31T15:32:51;15.30;99.90
2647;DHT22;1333;50.958;6.770;2023-03-31T15:35:34;15.30;99.90
2647;DHT22;1333;50.958;6.770;2023-03-31T15:38:03;15.10;99.90
2647;DHT22;1333;50.958;6.770;2023-03-31T15:40:35;15.10;99.90
2647;DHT22;1333;50.958;6.770;2023-03-31T15:43:14;15.10;99.90
2647;DHT22;1333;50.958;6.770;2023-03-31T15:45:46;15.20;99.90
2647;DHT22;1333;50.958;6.770;2023-03-31T15:51:03;15.50;99.90
2647;DHT22;1333;50.958;6.770;2023-03-31T15:56:04;15.60;99.90
2647;DHT22;1333;50.958;6.770;2023-03-31T15:59:00;15.50;99.90
2647;DHT22;1333;50.958;6.770;2023-03-31T16:01:36;15.30;99.90
2647;DHT22;1333;50.958;6.770;2023-03-31T16:04:08;15.20;99.90
2647;DHT22;1333;50.958;6.770;2023-03-31T16:06:46;15.00;99.90
2647;DHT22;1333;50.958;6.770;2023-03-31T16:09:17;14.90;99.90
2647;DHT22;1333;50.958;6.770;2023-03-31T16:11:53;14.90;99.90
2647;DHT22;1333;50.958;6.770;2023-03-31T16:14:28;14.60;99.90
2647;DHT22;1333;50.958;6.770;2023-03-31T16:17:00;14.50;99.90
2647;DHT22;1333;50.958;6.770;2023-03-31T16:19:31;14.40;99.90
2647;DHT22;1333;50.958;6.770;2023-03-31T16:22:02;14.10;99.90
2647;DHT22;1333;50.958;6.770;2023-03-31T16:24:31;14.10;99.90
2647;DHT22;1333;50.958;6.770;2023-03-31T16:27:02;13.90;99.90
2647;DHT22;1333;50.958;6.770;2023-03-31T16:29:34;13.80;99.90
2647;DHT22;1333;50.958;6.770;2023-03-31T16:32:17;13.70;99.90
2647;DHT22;1333;50.958;6.770;2023-03-31T16:35:01;13.60;99.90
2647;DHT22;1333;50.958;6.770;2023-03-31T16:37:28;13.60;99.90
2647;DHT22;1333;50.958;6.770;2023-03-31T16:39:54;13.40;99.90
2647;DHT22;1333;50.958;6.770;2023-03-31T16:42:20;13.40;99.90
2647;DHT22;1333;50.958;6.770;2023-03-31T16:44:46;13.50;99.90
2647;DHT22;1333;50.958;6.770;2023-03-31T16:47:12;13.50;99.90
2647;DHT22;1333;50.958;6.770;2023-03-31T16:49:38;13.50;99.90
2647;DHT22;1333;50.958;6.770;2023-03-31T16:52:04;13.40;99.90
2647;DHT22;1333;50.958;6.770;2023-03-31T16:54:31;13.40;99.90
2647;DHT22;1333;50.958;6.770;2023-03-31T16:56:57;13.40;99.90
2647;DHT22;1333;50.958;6.770;2023-03-31T16:59:23;13.40;99.90
2647;DHT22;1333;50.958;6.770;2023-03-31T17:01:49;13.30;99.90
2647;DHT22;1333;50.958;6.770;2023-03-31T17:04:15;13.20;99.90
2647;DHT22;1333;50.958;6.770;2023-03-31T17:06:40;13.20;99.90
2647;DHT22;1333;50.958;6.770;2023-03-31T17:09:06;13.10;99.90
2647;DHT22;1333;50.958;6.770;2023-03-31T17:11:32;13.10;99.90
2647;DHT22;1333;50.958;6.770;2023-03-31T17:13:57;13.10;99.90
2647;DHT22;1333;50.958;6.770;2023-03-31T17:16:24;13.10;99.90
2647;DHT22;1333;50.958;6.770;2023-03-31T17:18:50;13.10;99.90
2647;DHT22;1333;50.958;6.770;2023-03-31T17:21:17;13.10;99.90
2647;DHT22;1333;50.958;6.770;2023-03-31T17:23:43;13.00;99.90
2647;DHT22;1333;50.958;6.770;2023-03-31T17:26:09;13.00;99.90
2647;DHT22;1333;50.958;6.770;2023-03-31T17:28:37;13.00;99.90
2647;DHT22;1333;50.958;6.770;2023-03-31T17:31:12;13.00;99.90
2647;DHT22;1333;50.958;6.770;2023-03-31T17:33:39;13.00;99.90
2647;DHT22;1333;50.958;6.770;2023-03-31T17:36:04;12.90;99.90
2647;DHT22;1333;50.958;6.770;2023-03-31T17:38:30;12.90;99.90
2647;DHT22;1333;50.958;6.770;2023-03-31T17:41:02;12.90;99.90
2647;DHT22;1333;50.958;6.770;2023-03-31T17:43:27;12.80;99.90
2647;DHT22;1333;50.958;6.770;2023-03-31T17:46:00;12.70;99.90
2647;DHT22;1333;50.958;6.770;2023-03-31T17:48:26;12.60;99.90
2647;DHT22;1333;50.958;6.770;2023-03-31T17:50:52;12.50;99.90
2647;DHT22;1333;50.958;6.770;2023-03-31T17:53:17;12.50;99.90
2647;DHT22;1333;50.958;6.770;2023-03-31T17:55:43;12.60;99.90
2647;DHT22;1333;50.958;6.770;2023-03-31T17:58:09;12.50;99.90
2647;DHT22;1333;50.958;6.770;2023-03-31T18:00:38;12.40;99.90
2647;DHT22;1333;50.958;6.770;2023-03-31T18:03:03;12.40;99.90
2647;DHT22;1333;50.958;6.770;2023-03-31T18:05:29;12.30;99.90
2647;DHT22;1333;50.958;6.770;2023-03-31T18:07:57;12.40;99.90
2647;DHT22;1333;50.958;6.770;2023-03-31T18:10:23;12.40;99.90
2647;DHT22;1333;50.958;6.770;2023-03-31T18:12:49;12.40;99.90
2647;DHT22;1333;50.958;6.770;2023-03-31T18:15:14;12.40;99.90
2647;DHT22;1333;50.958;6.770;2023-03-31T18:17:40;12.40;99.90
2647;DHT22;1333;50.958;6.770;2023-03-31T18:20:07;12.40;99.90
2647;DHT22;1333;50.958;6.770;2023-03-31T18:22:34;12.40;99.90
2647;DHT22;1333;50.958;6.770;2023-03-31T18:24:59;12.40;99.90
2647;DHT22;1333;50.958;6.770;2023-03-31T18:27:25;12.40;99.90
2647;DHT22;1333;50.958;6.770;2023-03-31T18:29:51;12.40;99.90
2647;DHT22;1333;50.958;6.770;2023-03-31T18:32:17;12.30;99.90
2647;DHT22;1333;50.958;6.770;2023-03-31T18:34:42;12.30;99.90
2647;DHT22;1333;50.958;6.770;2023-03-31T18:37:08;12.20;99.90
2647;DHT22;1333;50.958;6.770;2023-03-31T18:39:33;12.20;99.90
2647;DHT22;1333;50.958;6.770;2023-03-31T18:41:59;12.10;99.90
2647;DHT22;1333;50.958;6.770;2023-03-31T18:44:25;12.00;99.90
2647;DHT22;1333;50.958;6.770;2023-03-31T18:46:50;11.90;99.90
2647;DHT22;1333;50.958;6.770;2023-03-31T18:49:16;11.80;99.90
2647;DHT22;1333;50.958;6.770;2023-03-31T18:51:44;11.70;99.90
2647;DHT22;1333;50.958;6.770;2023-03-31T18:54:09;11.70;99.90
2647;DHT22;1333;50.958;6.770;2023-03-31T18:56:35;11.60;99.90
2647;DHT22;1333;50.958;6.770;2023-03-31T18:59:01;11.60;99.90
2647;DHT22;1333;50.958;6.770;2023-03-31T19:01:29;11.50;99.90